sensor_id;sensor_type;location;lat;lon;timestamp;P1;durP1;ratioP1;P2;durP2;ratioP2
69502;SDS011;56704;54.242;12.442;2023-06-26T00:01:34;7.32;;;4.30;;
69502;SDS011;56704;54.242;12.442;2023-06-26T00:04:02;7.93;;;4.93;;
69502;SDS011;56704;54.242;12.442;2023-06-26T00:06:29;8.00;;;4.55;;
69502;SDS011;56704;54.242;12.442;2023-06-26T00:08:56;7.03;;;4.22;;
69502;SDS011;56704;54.242;12.442;2023-06-26T00:11:23;7.07;;;4.40;;
69502;SDS011;56704;54.242;12.442;2023-06-26T00:13:52;7.43;;;4.45;;
69502;SDS011;56704;54.242;12.442;2023-06-26T00:16:19;7.23;;;4.37;;
69502;SDS011;56704;54.242;12.442;2023-06-26T00:18:45;7.72;;;4.60;;
69502;SDS011;56704;54.242;12.442;2023-06-26T00:21:13;7.25;;;4.30;;
69502;SDS011;56704;54.242;12.442;2023-06-26T00:23:40;8.15;;;4.50;;
69502;SDS011;56704;54.242;12.442;2023-06-26T00:26:06;6.65;;;4.35;;
69502;SDS011;56704;54.242;12.442;2023-06-26T00:28:34;7.30;;;4.10;;
69502;SDS011;56704;54.242;12.442;2023-06-26T00:31:00;6.82;;;4.25;;
69502;SDS011;56704;54.242;12.442;2023-06-26T00:33:27;9.02;;;4.65;;
69502;SDS011;56704;54.242;12.442;2023-06-26T00:35:53;7.50;;;4.25;;
69502;SDS011;56704;54.242;12.442;2023-06-26T00:38:21;6.90;;;4.45;;
69502;SDS011;56704;54.242;12.442;2023-06-26T00:40:48;6.63;;;4.33;;
69502;SDS011;56704;54.242;12.442;2023-06-26T00:43:15;8.35;;;4.65;;
69502;SDS011;56704;54.242;12.442;2023-06-26T00:45:41;7.95;;;4.70;;
69502;SDS011;56704;54.242;12.442;2023-06-26T00:48:08;7.75;;;4.60;;
69502;SDS011;56704;54.242;12.442;2023-06-26T00:50:36;7.05;;;4.68;;
69502;SDS011;56704;54.242;12.442;2023-06-26T00:53:03;8.00;;;4.77;;
69502;SDS011;56704;54.242;12.442;2023-06-26T00:55:31;9.75;;;5.10;;
69502;SDS011;56704;54.242;12.442;2023-06-26T00:57:58;7.53;;;4.47;;
69502;SDS011;56704;54.242;12.442;2023-06-26T01:00:25;7.65;;;4.72;;
69502;SDS011;56704;54.242;12.442;2023-06-26T01:02:51;7.32;;;4.25;;
69502;SDS011;56704;54.242;12.442;2023-06-26T01:05:18;8.83;;;4.60;;
69502;SDS011;56704;54.242;12.442;2023-06-26T01:07:47;9.77;;;4.57;;
69502;SDS011;56704;54.242;12.442;2023-06-26T01:10:14;7.68;;;4.28;;
69502;SDS011;56704;54.242;12.442;2023-06-26T01:12:42;8.52;;;4.97;;
69502;SDS011;56704;54.242;12.442;2023-06-26T01:15:09;7.30;;;4.43;;
69502;SDS011;56704;54.242;12.442;2023-06-26T01:17:37;7.97;;;4.70;;
69502;SDS011;56704;54.242;12.442;2023-06-26T01:20:05;8.30;;;4.60;;
69502;SDS011;56704;54.242;12.442;2023-06-26T01:22:37;8.38;;;4.60;;
69502;SDS011;56704;54.242;12.442;2023-06-26T01:25:12;6.65;;;3.80;;
69502;SDS011;56704;54.242;12.442;2023-06-26T01:27:45;7.85;;;4.57;;
69502;SDS011;56704;54.242;12.442;2023-06-26T01:30:14;8.53;;;4.60;;
69502;SDS011;56704;54.242;12.442;2023-06-26T01:32:42;7.53;;;4.57;;
69502;SDS011;56704;54.242;12.442;2023-06-26T01:35:10;7.40;;;4.60;;
69502;SDS011;56704;54.242;12.442;2023-06-26T01:37:37;7.53;;;4.60;;
69502;SDS011;56704;54.242;12.442;2023-06-26T01:40:04;7.38;;;4.57;;
69502;SDS011;56704;54.242;12.442;2023-06-26T01:42:31;7.27;;;4.37;;
69502;SDS011;56704;54.242;12.442;2023-06-26T01:45:00;7.93;;;4.68;;
69502;SDS011;56704;54.242;12.442;2023-06-26T01:47:33;9.77;;;5.13;;
69502;SDS011;56704;54.242;12.442;2023-06-26T01:50:05;8.98;;;4.53;;
69502;SDS011;56704;54.242;12.442;2023-06-26T01:52:35;8.13;;;4.80;;
69502;SDS011;56704;54.242;12.442;2023-06-26T01:55:09;7.10;;;4.83;;
69502;SDS011;56704;54.242;12.442;2023-06-26T01:57:49;7.45;;;4.13;;
69502;SDS011;56704;54.242;12.442;2023-06-26T02:00:21;12.20;;;4.75;;
69502;SDS011;56704;54.242;12.442;2023-06-26T02:02:49;10.40;;;4.97;;
69502;SDS011;56704;54.242;12.442;2023-06-26T02:05:16;9.23;;;4.93;;
69502;SDS011;56704;54.242;12.442;2023-06-26T02:07:43;9.07;;;5.00;;
69502;SDS011;56704;54.242;12.442;2023-06-26T02:10:10;9.13;;;4.88;;
69502;SDS011;56704;54.242;12.442;2023-06-26T02:12:37;7.30;;;4.75;;
69502;SDS011;56704;54.242;12.442;2023-06-26T02:15:04;8.40;;;4.68;;
69502;SDS011;56704;54.242;12.442;2023-06-26T02:17:33;9.10;;;4.97;;
69502;SDS011;56704;54.242;12.442;2023-06-26T02:19:59;8.27;;;4.87;;
69502;SDS011;56704;54.242;12.442;2023-06-26T02:22:26;7.80;;;4.70;;
69502;SDS011;56704;54.242;12.442;2023-06-26T02:24:53;8.10;;;4.50;;
69502;SDS011;56704;54.242;12.442;2023-06-26T02:27:20;8.65;;;4.60;;
69502;SDS011;56704;54.242;12.442;2023-06-26T02:29:46;9.73;;;4.93;;
69502;SDS011;56704;54.242;12.442;2023-06-26T02:32:14;7.53;;;4.60;;
69502;SDS011;56704;54.242;12.442;2023-06-26T02:34:41;8.80;;;4.78;;
69502;SDS011;56704;54.242;12.442;2023-06-26T02:37:08;7.05;;;4.55;;
69502;SDS011;56704;54.242;12.442;2023-06-26T02:39:35;8.13;;;4.47;;
69502;SDS011;56704;54.242;12.442;2023-06-26T02:42:02;8.02;;;4.75;;
69502;SDS011;56704;54.242;12.442;2023-06-26T02:44:28;8.93;;;5.03;;
69502;SDS011;56704;54.242;12.442;2023-06-26T02:46:55;7.30;;;4.65;;
69502;SDS011;56704;54.242;12.442;2023-06-26T02:49:21;8.30;;;4.80;;
69502;SDS011;56704;54.242;12.442;2023-06-26T02:51:49;8.90;;;4.30;;
69502;SDS011;56704;54.242;12.442;2023-06-26T02:54:16;7.93;;;4.75;;
69502;SDS011;56704;54.242;12.442;2023-06-26T02:56:43;8.03;;;4.60;;
69502;SDS011;56704;54.242;12.442;2023-06-26T02:59:09;8.38;;;4.50;;
69502;SDS011;56704;54.242;12.442;2023-06-26T03:01:36;9.52;;;4.60;;
69502;SDS011;56704;54.242;12.442;2023-06-26T03:04:04;9.27;;;4.90;;
69502;SDS011;56704;54.242;12.442;2023-06-26T03:06:40;8.27;;;4.90;;
69502;SDS011;56704;54.242;12.442;2023-06-26T03:09:22;7.33;;;4.73;;
69502;SDS011;56704;54.242;12.442;2023-06-26T03:11:58;10.38;;;5.57;;
69502;SDS011;56704;54.242;12.442;2023-06-26T03:14:25;8.55;;;5.15;;
69502;SDS011;56704;54.242;12.442;2023-06-26T04:03:35;8.40;;;5.30;;
69502;SDS011;56704;54.242;12.442;2023-06-26T04:06:02;8.90;;;5.00;;
69502;SDS011;56704;54.242;12.442;2023-06-26T04:08:29;9.25;;;5.47;;
69502;SDS011;56704;54.242;12.442;2023-06-26T04:11:06;9.07;;;5.03;;
69502;SDS011;56704;54.242;12.442;2023-06-26T04:13:32;9.25;;;6.28;;
69502;SDS011;56704;54.242;12.442;2023-06-26T04:15:59;9.10;;;5.63;;
69502;SDS011;56704;54.242;12.442;2023-06-26T04:18:26;8.18;;;5.05;;
69502;SDS011;56704;54.242;12.442;2023-06-26T04:21:07;8.45;;;5.28;;
69502;SDS011;56704;54.242;12.442;2023-06-26T04:23:36;8.43;;;5.30;;
69502;SDS011;56704;54.242;12.442;2023-06-26T04:26:03;11.43;;;5.60;;
69502;SDS011;56704;54.242;12.442;2023-06-26T04:28:31;10.00;;;5.68;;
69502;SDS011;56704;54.242;12.442;2023-06-26T04:30:57;8.82;;;5.18;;
69502;SDS011;56704;54.242;12.442;2023-06-26T04:33:24;12.00;;;5.97;;
69502;SDS011;56704;54.242;12.442;2023-06-26T04:35:51;9.20;;;5.50;;
69502;SDS011;56704;54.242;12.442;2023-06-26T04:38:19;7.97;;;5.35;;
69502;SDS011;56704;54.242;12.442;2023-06-26T04:40:46;10.82;;;6.05;;
69502;SDS011;56704;54.242;12.442;2023-06-26T04:43:13;9.00;;;5.65;;
69502;SDS011;56704;54.242;12.442;2023-06-26T04:45:39;9.32;;;5.50;;
69502;SDS011;56704;54.242;12.442;2023-06-26T04:48:06;9.40;;;5.67;;
69502;SDS011;56704;54.242;12.442;2023-06-26T04:50:33;9.90;;;6.20;;
69502;SDS011;56704;54.242;12.442;2023-06-26T04:53:00;9.73;;;5.82;;
69502;SDS011;56704;54.242;12.442;2023-06-26T04:55:28;9.38;;;6.18;;
69502;SDS011;56704;54.242;12.442;2023-06-26T05:01:09;9.30;;;5.97;;
69502;SDS011;56704;54.242;12.442;2023-06-26T05:03:35;9.88;;;5.82;;
69502;SDS011;56704;54.242;12.442;2023-06-26T05:06:02;10.65;;;6.15;;
69502;SDS011;56704;54.242;12.442;2023-06-26T05:08:28;8.82;;;5.47;;
69502;SDS011;56704;54.242;12.442;2023-06-26T05:10:56;9.20;;;6.10;;
69502;SDS011;56704;54.242;12.442;2023-06-26T05:13:23;11.87;;;6.23;;
69502;SDS011;56704;54.242;12.442;2023-06-26T05:15:51;9.07;;;5.53;;
69502;SDS011;56704;54.242;12.442;2023-06-26T05:18:18;10.13;;;6.38;;
69502;SDS011;56704;54.242;12.442;2023-06-26T05:20:45;9.07;;;6.03;;
69502;SDS011;56704;54.242;12.442;2023-06-26T05:23:13;9.55;;;6.22;;
69502;SDS011;56704;54.242;12.442;2023-06-26T05:25:40;9.40;;;6.30;;
69502;SDS011;56704;54.242;12.442;2023-06-26T05:28:08;9.65;;;6.13;;
69502;SDS011;56704;54.242;12.442;2023-06-26T05:30:37;9.82;;;5.85;;
69502;SDS011;56704;54.242;12.442;2023-06-26T05:33:04;10.05;;;5.82;;
69502;SDS011;56704;54.242;12.442;2023-06-26T05:35:33;10.82;;;6.53;;
69502;SDS011;56704;54.242;12.442;2023-06-26T05:38:02;8.63;;;5.43;;
69502;SDS011;56704;54.242;12.442;2023-06-26T05:40:29;10.35;;;6.53;;
69502;SDS011;56704;54.242;12.442;2023-06-26T05:42:56;8.35;;;4.85;;
69502;SDS011;56704;54.242;12.442;2023-06-26T05:45:24;10.02;;;6.80;;
69502;SDS011;56704;54.242;12.442;2023-06-26T05:47:51;9.90;;;5.90;;
69502;SDS011;56704;54.242;12.442;2023-06-26T05:50:18;9.20;;;5.87;;
69502;SDS011;56704;54.242;12.442;2023-06-26T05:52:45;8.52;;;5.55;;
69502;SDS011;56704;54.242;12.442;2023-06-26T05:55:13;11.00;;;6.50;;
69502;SDS011;56704;54.242;12.442;2023-06-26T05:57:40;9.27;;;5.80;;
69502;SDS011;56704;54.242;12.442;2023-06-26T06:00:08;11.50;;;6.93;;
69502;SDS011;56704;54.242;12.442;2023-06-26T06:02:37;9.00;;;5.60;;
69502;SDS011;56704;54.242;12.442;2023-06-26T06:05:04;9.15;;;6.53;;
69502;SDS011;56704;54.242;12.442;2023-06-26T06:07:31;9.07;;;6.60;;
69502;SDS011;56704;54.242;12.442;2023-06-26T06:09:58;9.98;;;6.47;;
69502;SDS011;56704;54.242;12.442;2023-06-26T06:12:25;10.27;;;6.30;;
69502;SDS011;56704;54.242;12.442;2023-06-26T06:14:52;9.20;;;5.60;;
69502;SDS011;56704;54.242;12.442;2023-06-26T06:17:18;9.77;;;5.50;;
69502;SDS011;56704;54.242;12.442;2023-06-26T06:19:46;10.27;;;6.93;;
69502;SDS011;56704;54.242;12.442;2023-06-26T06:22:13;8.30;;;5.88;;
69502;SDS011;56704;54.242;12.442;2023-06-26T06:24:39;9.32;;;6.40;;
69502;SDS011;56704;54.242;12.442;2023-06-26T06:27:06;10.83;;;5.83;;
69502;SDS011;56704;54.242;12.442;2023-06-26T06:29:32;10.75;;;5.85;;
69502;SDS011;56704;54.242;12.442;2023-06-26T06:31:59;8.15;;;5.65;;
69502;SDS011;56704;54.242;12.442;2023-06-26T06:34:25;10.98;;;7.40;;
69502;SDS011;56704;54.242;12.442;2023-06-26T06:36:53;10.18;;;5.68;;
69502;SDS011;56704;54.242;12.442;2023-06-26T06:39:20;9.30;;;6.87;;
69502;SDS011;56704;54.242;12.442;2023-06-26T06:41:46;9.50;;;6.45;;
69502;SDS011;56704;54.242;12.442;2023-06-26T06:44:13;9.52;;;6.15;;
69502;SDS011;56704;54.242;12.442;2023-06-26T06:46:44;11.70;;;6.55;;
69502;SDS011;56704;54.242;12.442;2023-06-26T06:49:11;8.13;;;5.35;;
69502;SDS011;56704;54.242;12.442;2023-06-26T06:51:37;9.33;;;5.63;;
69502;SDS011;56704;54.242;12.442;2023-06-26T06:54:05;9.77;;;6.10;;
69502;SDS011;56704;54.242;12.442;2023-06-26T06:56:32;8.02;;;5.40;;
69502;SDS011;56704;54.242;12.442;2023-06-26T06:58:58;9.23;;;5.85;;
69502;SDS011;56704;54.242;12.442;2023-06-26T07:01:25;9.20;;;6.63;;
69502;SDS011;56704;54.242;12.442;2023-06-26T07:03:51;9.17;;;6.40;;
69502;SDS011;56704;54.242;12.442;2023-06-26T07:06:18;8.82;;;6.10;;
69502;SDS011;56704;54.242;12.442;2023-06-26T07:08:45;9.25;;;6.25;;
69502;SDS011;56704;54.242;12.442;2023-06-26T07:11:13;8.15;;;6.15;;
69502;SDS011;56704;54.242;12.442;2023-06-26T07:13:39;7.47;;;5.20;;
69502;SDS011;56704;54.242;12.442;2023-06-26T07:16:06;8.83;;;6.57;;
69502;SDS011;56704;54.242;12.442;2023-06-26T07:18:36;9.75;;;6.47;;
69502;SDS011;56704;54.242;12.442;2023-06-26T07:21:03;9.55;;;6.60;;
69502;SDS011;56704;54.242;12.442;2023-06-26T07:23:30;10.23;;;6.53;;
69502;SDS011;56704;54.242;12.442;2023-06-26T07:25:56;8.18;;;5.97;;
69502;SDS011;56704;54.242;12.442;2023-06-26T07:28:24;8.30;;;5.50;;
69502;SDS011;56704;54.242;12.442;2023-06-26T07:30:51;10.40;;;5.80;;
69502;SDS011;56704;54.242;12.442;2023-06-26T07:33:17;8.45;;;5.07;;
69502;SDS011;56704;54.242;12.442;2023-06-26T07:35:46;8.80;;;5.82;;
69502;SDS011;56704;54.242;12.442;2023-06-26T07:38:13;8.30;;;6.15;;
69502;SDS011;56704;54.242;12.442;2023-06-26T07:40:39;7.33;;;5.77;;
69502;SDS011;56704;54.242;12.442;2023-06-26T07:43:06;6.70;;;4.93;;
69502;SDS011;56704;54.242;12.442;2023-06-26T07:45:33;8.00;;;6.30;;
69502;SDS011;56704;54.242;12.442;2023-06-26T07:48:00;7.57;;;6.40;;
69502;SDS011;56704;54.242;12.442;2023-06-26T07:50:27;9.38;;;6.50;;
69502;SDS011;56704;54.242;12.442;2023-06-26T07:52:53;8.50;;;6.40;;
69502;SDS011;56704;54.242;12.442;2023-06-26T07:55:20;7.47;;;5.63;;
69502;SDS011;56704;54.242;12.442;2023-06-26T07:57:47;8.30;;;6.32;;
69502;SDS011;56704;54.242;12.442;2023-06-26T08:00:15;8.77;;;7.05;;
69502;SDS011;56704;54.242;12.442;2023-06-26T08:02:43;7.97;;;6.43;;
69502;SDS011;56704;54.242;12.442;2023-06-26T08:05:10;7.47;;;5.70;;
69502;SDS011;56704;54.242;12.442;2023-06-26T08:07:36;6.72;;;4.57;;
69502;SDS011;56704;54.242;12.442;2023-06-26T08:10:03;10.00;;;6.60;;
69502;SDS011;56704;54.242;12.442;2023-06-26T08:12:30;8.05;;;6.32;;
69502;SDS011;56704;54.242;12.442;2023-06-26T08:14:57;8.70;;;6.40;;
69502;SDS011;56704;54.242;12.442;2023-06-26T08:17:23;7.10;;;5.50;;
69502;SDS011;56704;54.242;12.442;2023-06-26T08:19:51;8.38;;;6.50;;
69502;SDS011;56704;54.242;12.442;2023-06-26T08:22:18;8.82;;;5.78;;
69502;SDS011;56704;54.242;12.442;2023-06-26T08:24:44;8.25;;;6.40;;
69502;SDS011;56704;54.242;12.442;2023-06-26T08:27:11;9.55;;;7.25;;
69502;SDS011;56704;54.242;12.442;2023-06-26T08:29:37;8.43;;;6.50;;
69502;SDS011;56704;54.242;12.442;2023-06-26T08:32:04;6.25;;;5.13;;
69502;SDS011;56704;54.242;12.442;2023-06-26T08:34:31;6.95;;;5.20;;
69502;SDS011;56704;54.242;12.442;2023-06-26T08:36:59;7.38;;;6.03;;
69502;SDS011;56704;54.242;12.442;2023-06-26T08:39:26;7.30;;;5.82;;
69502;SDS011;56704;54.242;12.442;2023-06-26T08:41:53;7.17;;;5.47;;
69502;SDS011;56704;54.242;12.442;2023-06-26T08:44:19;7.65;;;5.85;;
69502;SDS011;56704;54.242;12.442;2023-06-26T08:46:50;7.57;;;6.20;;
69502;SDS011;56704;54.242;12.442;2023-06-26T08:49:18;7.18;;;6.05;;
69502;SDS011;56704;54.242;12.442;2023-06-26T08:51:49;7.10;;;5.63;;
69502;SDS011;56704;54.242;12.442;2023-06-26T08:54:25;9.10;;;6.27;;
69502;SDS011;56704;54.242;12.442;2023-06-26T08:56:57;7.00;;;4.75;;
69502;SDS011;56704;54.242;12.442;2023-06-26T08:59:25;9.45;;;5.95;;
69502;SDS011;56704;54.242;12.442;2023-06-26T09:01:51;8.18;;;5.88;;
69502;SDS011;56704;54.242;12.442;2023-06-26T09:04:18;7.07;;;5.63;;
69502;SDS011;56704;54.242;12.442;2023-06-26T09:06:45;9.20;;;5.53;;
69502;SDS011;56704;54.242;12.442;2023-06-26T09:09:11;8.10;;;6.43;;
69502;SDS011;56704;54.242;12.442;2023-06-26T09:11:40;8.10;;;6.63;;
69502;SDS011;56704;54.242;12.442;2023-06-26T09:14:06;7.10;;;5.65;;
69502;SDS011;56704;54.242;12.442;2023-06-26T09:16:39;9.75;;;6.88;;
69502;SDS011;56704;54.242;12.442;2023-06-26T09:19:08;8.60;;;6.57;;
69502;SDS011;56704;54.242;12.442;2023-06-26T09:21:37;9.38;;;4.75;;
69502;SDS011;56704;54.242;12.442;2023-06-26T09:24:04;7.70;;;5.78;;
69502;SDS011;56704;54.242;12.442;2023-06-26T09:26:33;8.98;;;5.63;;
69502;SDS011;56704;54.242;12.442;2023-06-26T09:29:01;7.75;;;5.95;;
69502;SDS011;56704;54.242;12.442;2023-06-26T09:31:29;6.90;;;4.23;;
69502;SDS011;56704;54.242;12.442;2023-06-26T09:33:57;9.10;;;4.85;;
69502;SDS011;56704;54.242;12.442;2023-06-26T09:36:27;6.25;;;5.00;;
69502;SDS011;56704;54.242;12.442;2023-06-26T09:38:58;7.82;;;5.88;;
69502;SDS011;56704;54.242;12.442;2023-06-26T09:41:25;7.55;;;5.30;;
69502;SDS011;56704;54.242;12.442;2023-06-26T09:43:52;5.70;;;3.87;;
69502;SDS011;56704;54.242;12.442;2023-06-26T09:46:25;6.95;;;5.05;;
69502;SDS011;56704;54.242;12.442;2023-06-26T09:48:57;8.40;;;5.85;;
69502;SDS011;56704;54.242;12.442;2023-06-26T09:51:25;7.40;;;4.78;;
69502;SDS011;56704;54.242;12.442;2023-06-26T09:53:52;7.40;;;5.65;;
69502;SDS011;56704;54.242;12.442;2023-06-26T09:56:18;6.60;;;5.33;;
69502;SDS011;56704;54.242;12.442;2023-06-26T09:58:46;8.52;;;5.03;;
69502;SDS011;56704;54.242;12.442;2023-06-26T10:01:13;7.55;;;4.70;;
69502;SDS011;56704;54.242;12.442;2023-06-26T10:03:41;6.05;;;4.68;;
69502;SDS011;56704;54.242;12.442;2023-06-26T10:06:09;8.30;;;5.45;;
69502;SDS011;56704;54.242;12.442;2023-06-26T10:08:37;6.70;;;5.03;;
69502;SDS011;56704;54.242;12.442;2023-06-26T10:11:05;6.38;;;4.43;;
69502;SDS011;56704;54.242;12.442;2023-06-26T10:13:34;7.43;;;4.90;;
69502;SDS011;56704;54.242;12.442;2023-06-26T10:16:04;8.07;;;5.40;;
69502;SDS011;56704;54.242;12.442;2023-06-26T10:18:33;7.43;;;4.90;;
69502;SDS011;56704;54.242;12.442;2023-06-26T10:21:04;7.47;;;5.00;;
69502;SDS011;56704;54.242;12.442;2023-06-26T10:23:32;5.45;;;4.20;;
69502;SDS011;56704;54.242;12.442;2023-06-26T10:26:02;7.80;;;5.18;;
69502;SDS011;56704;54.242;12.442;2023-06-26T10:28:28;6.78;;;4.25;;
69502;SDS011;56704;54.242;12.442;2023-06-26T10:30:57;6.20;;;4.25;;
69502;SDS011;56704;54.242;12.442;2023-06-26T10:33:26;5.30;;;3.90;;
69502;SDS011;56704;54.242;12.442;2023-06-26T10:35:53;5.45;;;4.00;;
69502;SDS011;56704;54.242;12.442;2023-06-26T10:38:21;6.88;;;3.97;;
69502;SDS011;56704;54.242;12.442;2023-06-26T10:40:48;7.40;;;4.57;;
69502;SDS011;56704;54.242;12.442;2023-06-26T10:43:15;6.40;;;4.63;;
69502;SDS011;56704;54.242;12.442;2023-06-26T10:45:44;7.97;;;4.93;;
69502;SDS011;56704;54.242;12.442;2023-06-26T10:48:14;5.97;;;4.35;;
69502;SDS011;56704;54.242;12.442;2023-06-26T10:50:42;6.40;;;4.88;;
69502;SDS011;56704;54.242;12.442;2023-06-26T10:53:11;6.40;;;5.00;;
69502;SDS011;56704;54.242;12.442;2023-06-26T10:55:48;5.85;;;4.72;;
69502;SDS011;56704;54.242;12.442;2023-06-26T10:58:33;6.47;;;4.47;;
69502;SDS011;56704;54.242;12.442;2023-06-26T11:01:19;6.22;;;4.20;;
69502;SDS011;56704;54.242;12.442;2023-06-26T11:03:48;7.22;;;5.30;;
69502;SDS011;56704;54.242;12.442;2023-06-26T11:06:18;7.07;;;4.65;;
69502;SDS011;56704;54.242;12.442;2023-06-26T11:08:45;7.53;;;4.85;;
69502;SDS011;56704;54.242;12.442;2023-06-26T11:11:14;6.93;;;4.80;;
69502;SDS011;56704;54.242;12.442;2023-06-26T11:13:41;9.00;;;5.03;;
69502;SDS011;56704;54.242;12.442;2023-06-26T11:16:08;7.85;;;4.45;;
69502;SDS011;56704;54.242;12.442;2023-06-26T11:18:35;5.43;;;4.43;;
69502;SDS011;56704;54.242;12.442;2023-06-26T11:21:05;5.85;;;4.40;;
69502;SDS011;56704;54.242;12.442;2023-06-26T11:23:33;5.23;;;4.40;;
69502;SDS011;56704;54.242;12.442;2023-06-26T11:26:15;6.43;;;5.32;;
69502;SDS011;56704;54.242;12.442;2023-06-26T11:28:46;6.60;;;4.90;;
69502;SDS011;56704;54.242;12.442;2023-06-26T11:31:26;7.32;;;5.13;;
69502;SDS011;56704;54.242;12.442;2023-06-26T11:33:55;7.10;;;5.20;;
69502;SDS011;56704;54.242;12.442;2023-06-26T11:36:23;5.93;;;4.80;;
69502;SDS011;56704;54.242;12.442;2023-06-26T11:38:54;7.45;;;5.10;;
69502;SDS011;56704;54.242;12.442;2023-06-26T11:41:22;7.45;;;4.90;;
69502;SDS011;56704;54.242;12.442;2023-06-26T11:43:50;6.15;;;4.60;;
69502;SDS011;56704;54.242;12.442;2023-06-26T11:46:17;6.07;;;5.18;;
69502;SDS011;56704;54.242;12.442;2023-06-26T11:48:45;6.60;;;4.40;;
69502;SDS011;56704;54.242;12.442;2023-06-26T11:51:12;8.32;;;5.40;;
69502;SDS011;56704;54.242;12.442;2023-06-26T11:53:39;7.25;;;4.82;;
69502;SDS011;56704;54.242;12.442;2023-06-26T11:56:07;7.55;;;5.28;;
69502;SDS011;56704;54.242;12.442;2023-06-26T11:58:36;6.50;;;5.22;;
69502;SDS011;56704;54.242;12.442;2023-06-26T12:01:03;7.30;;;5.43;;
69502;SDS011;56704;54.242;12.442;2023-06-26T12:03:31;9.10;;;5.20;;
69502;SDS011;56704;54.242;12.442;2023-06-26T12:06:00;7.10;;;5.00;;
69502;SDS011;56704;54.242;12.442;2023-06-26T12:08:31;7.88;;;5.28;;
69502;SDS011;56704;54.242;12.442;2023-06-26T12:10:57;7.10;;;4.93;;
69502;SDS011;56704;54.242;12.442;2023-06-26T12:13:24;5.07;;;3.17;;
69502;SDS011;56704;54.242;12.442;2023-06-26T12:15:52;6.78;;;4.93;;
69502;SDS011;56704;54.242;12.442;2023-06-26T12:18:19;6.53;;;5.10;;
69502;SDS011;56704;54.242;12.442;2023-06-26T12:20:49;7.18;;;4.47;;
69502;SDS011;56704;54.242;12.442;2023-06-26T12:23:18;7.05;;;5.05;;
69502;SDS011;56704;54.242;12.442;2023-06-26T12:25:47;6.10;;;4.40;;
69502;SDS011;56704;54.242;12.442;2023-06-26T12:28:16;12.27;;;5.63;;
69502;SDS011;56704;54.242;12.442;2023-06-26T12:30:46;16.60;;;7.15;;
69502;SDS011;56704;54.242;12.442;2023-06-26T12:33:15;20.38;;;7.78;;
69502;SDS011;56704;54.242;12.442;2023-06-26T12:35:41;19.40;;;6.43;;
69502;SDS011;56704;54.242;12.442;2023-06-26T12:38:09;20.10;;;9.87;;
69502;SDS011;56704;54.242;12.442;2023-06-26T12:40:44;19.38;;;7.80;;
69502;SDS011;56704;54.242;12.442;2023-06-26T12:43:11;26.48;;;9.20;;
69502;SDS011;56704;54.242;12.442;2023-06-26T12:45:37;21.45;;;8.45;;
69502;SDS011;56704;54.242;12.442;2023-06-26T12:50:42;31.43;;;11.37;;
69502;SDS011;56704;54.242;12.442;2023-06-26T13:49:18;15.52;;;8.75;;
69502;SDS011;56704;54.242;12.442;2023-06-26T13:51:45;16.10;;;8.93;;
69502;SDS011;56704;54.242;12.442;2023-06-26T13:54:13;12.23;;;6.97;;
69502;SDS011;56704;54.242;12.442;2023-06-26T13:56:53;13.30;;;7.30;;
69502;SDS011;56704;54.242;12.442;2023-06-26T14:08:01;17.48;;;9.25;;
69502;SDS011;56704;54.242;12.442;2023-06-26T14:10:33;14.43;;;8.43;;
69502;SDS011;56704;54.242;12.442;2023-06-26T14:13:01;15.75;;;8.80;;
69502;SDS011;56704;54.242;12.442;2023-06-26T14:15:29;18.05;;;9.13;;
69502;SDS011;56704;54.242;12.442;2023-06-26T14:17:56;15.32;;;9.50;;
69502;SDS011;56704;54.242;12.442;2023-06-26T14:20:27;15.93;;;10.00;;
69502;SDS011;56704;54.242;12.442;2023-06-26T14:22:56;18.37;;;10.10;;
69502;SDS011;56704;54.242;12.442;2023-06-26T14:25:22;21.05;;;10.25;;
69502;SDS011;56704;54.242;12.442;2023-06-26T14:27:49;13.68;;;8.70;;
69502;SDS011;56704;54.242;12.442;2023-06-26T14:30:16;20.20;;;10.20;;
69502;SDS011;56704;54.242;12.442;2023-06-26T14:32:42;15.55;;;8.82;;
69502;SDS011;56704;54.242;12.442;2023-06-26T14:35:09;13.60;;;7.87;;
69502;SDS011;56704;54.242;12.442;2023-06-26T14:37:36;13.77;;;7.90;;
69502;SDS011;56704;54.242;12.442;2023-06-26T14:40:06;11.65;;;7.30;;
69502;SDS011;56704;54.242;12.442;2023-06-26T14:42:33;14.02;;;6.40;;
69502;SDS011;56704;54.242;12.442;2023-06-26T14:45:00;10.13;;;5.85;;
69502;SDS011;56704;54.242;12.442;2023-06-26T14:47:27;12.20;;;5.77;;
69502;SDS011;56704;54.242;12.442;2023-06-26T14:49:53;11.75;;;5.47;;
69502;SDS011;56704;54.242;12.442;2023-06-26T14:52:20;10.63;;;6.22;;
69502;SDS011;56704;54.242;12.442;2023-06-26T14:54:46;9.85;;;5.65;;
69502;SDS011;56704;54.242;12.442;2023-06-26T14:57:14;13.00;;;6.53;;
69502;SDS011;56704;54.242;12.442;2023-06-26T14:59:41;12.17;;;5.33;;
69502;SDS011;56704;54.242;12.442;2023-06-26T15:02:08;9.98;;;6.18;;
69502;SDS011;56704;54.242;12.442;2023-06-26T15:04:34;9.02;;;5.38;;
69502;SDS011;56704;54.242;12.442;2023-06-26T15:10:21;8.32;;;4.13;;
69502;SDS011;56704;54.242;12.442;2023-06-26T15:12:49;12.73;;;4.50;;
69502;SDS011;56704;54.242;12.442;2023-06-26T15:15:16;10.95;;;4.35;;
69502;SDS011;56704;54.242;12.442;2023-06-26T15:17:43;10.80;;;3.97;;
69502;SDS011;56704;54.242;12.442;2023-06-26T15:20:09;9.52;;;3.28;;
69502;SDS011;56704;54.242;12.442;2023-06-26T15:22:36;8.23;;;3.10;;
69502;SDS011;56704;54.242;12.442;2023-06-26T15:25:04;7.57;;;2.37;;
69502;SDS011;56704;54.242;12.442;2023-06-26T15:27:31;10.32;;;2.55;;
69502;SDS011;56704;54.242;12.442;2023-06-26T15:29:59;6.13;;;2.13;;
69502;SDS011;56704;54.242;12.442;2023-06-26T15:32:26;6.30;;;2.50;;
69502;SDS011;56704;54.242;12.442;2023-06-26T15:34:52;7.53;;;2.40;;
69502;SDS011;56704;54.242;12.442;2023-06-26T15:37:19;7.13;;;1.97;;
69502;SDS011;56704;54.242;12.442;2023-06-26T15:39:45;8.07;;;2.63;;
69502;SDS011;56704;54.242;12.442;2023-06-26T15:42:12;8.13;;;2.30;;
69502;SDS011;56704;54.242;12.442;2023-06-26T15:44:39;8.07;;;2.28;;
69502;SDS011;56704;54.242;12.442;2023-06-26T15:47:07;9.15;;;2.45;;
69502;SDS011;56704;54.242;12.442;2023-06-26T15:49:34;8.87;;;2.33;;
69502;SDS011;56704;54.242;12.442;2023-06-26T15:52:00;11.98;;;2.38;;
69502;SDS011;56704;54.242;12.442;2023-06-26T15:54:27;6.85;;;2.20;;
69502;SDS011;56704;54.242;12.442;2023-06-26T15:56:53;10.55;;;2.10;;
69502;SDS011;56704;54.242;12.442;2023-06-26T15:59:20;7.30;;;2.20;;
69502;SDS011;56704;54.242;12.442;2023-06-26T16:01:46;7.47;;;2.50;;
69502;SDS011;56704;54.242;12.442;2023-06-26T16:04:15;9.43;;;2.58;;
69502;SDS011;56704;54.242;12.442;2023-06-26T16:06:41;8.43;;;2.53;;
69502;SDS011;56704;54.242;12.442;2023-06-26T16:09:08;8.93;;;2.40;;
69502;SDS011;56704;54.242;12.442;2023-06-26T16:11:34;7.13;;;2.10;;
69502;SDS011;56704;54.242;12.442;2023-06-26T16:14:01;9.00;;;2.23;;
69502;SDS011;56704;54.242;12.442;2023-06-26T16:16:28;8.35;;;2.60;;
69502;SDS011;56704;54.242;12.442;2023-06-26T16:18:54;8.27;;;2.50;;
69502;SDS011;56704;54.242;12.442;2023-06-26T16:21:22;9.95;;;2.25;;
69502;SDS011;56704;54.242;12.442;2023-06-26T16:23:49;7.38;;;2.15;;
69502;SDS011;56704;54.242;12.442;2023-06-26T16:26:15;7.67;;;2.17;;
69502;SDS011;56704;54.242;12.442;2023-06-26T16:28:43;9.23;;;2.33;;
69502;SDS011;56704;54.242;12.442;2023-06-26T16:31:09;6.70;;;2.65;;
69502;SDS011;56704;54.242;12.442;2023-06-26T16:33:36;8.48;;;2.40;;
69502;SDS011;56704;54.242;12.442;2023-06-26T16:36:03;8.05;;;1.80;;